createdAt,value
2017-12-10T00:00:42.210Z,85.82
2017-12-10T00:03:10.555Z,85.61
2017-12-10T00:05:40.369Z,85.25
2017-12-10T00:08:09.549Z,85.21
2017-12-10T00:10:38.523Z,85.41
2017-12-10T00:13:06.839Z,85.75
2017-12-10T00:15:35.920Z,86.06
2017-12-10T00:18:04.255Z,86.17
2017-12-10T00:20:32.581Z,86.47
2017-12-10T00:23:00.907Z,86.68
2017-12-10T00:25:29.256Z,86.77
2017-12-10T00:27:58.327Z,86.86
2017-12-10T00:30:26.661Z,86.88
2017-12-10T00:32:54.979Z,86.93
2017-12-10T00:35:23.415Z,86.96
2017-12-10T00:37:52.533Z,86.94
2017-12-10T00:40:20.889Z,87.04
2017-12-10T00:42:49.999Z,87.16
2017-12-10T00:45:18.343Z,87.30
2017-12-10T00:47:46.669Z,87.41
2017-12-10T00:50:14.998Z,87.61
2017-12-10T00:52:43.319Z,87.68
2017-12-10T00:55:11.654Z,87.83
2017-12-10T00:57:40.013Z,87.81
2017-12-10T01:00:08.345Z,87.92
2017-12-10T01:02:37.435Z,87.98
2017-12-10T01:05:05.793Z,88.00
2017-12-10T01:07:34.135Z,88.03
2017-12-10T01:10:02.497Z,88.03
2017-12-10T01:12:30.881Z,88.07
2017-12-10T01:14:59.964Z,88.09
2017-12-10T01:17:29.065Z,88.17
2017-12-10T01:19:58.179Z,88.31
2017-12-10T01:22:27.355Z,88.37
2017-12-10T01:24:56.440Z,88.40
2017-12-10T01:27:24.770Z,88.50
2017-12-10T01:29:53.094Z,88.47
2017-12-10T01:32:21.435Z,88.51
2017-12-10T01:34:49.763Z,88.48
2017-12-10T01:37:18.115Z,88.59
2017-12-10T01:39:46.424Z,88.50
2017-12-10T01:42:14.808Z,88.61
2017-12-10T01:44:43.113Z,88.58
2017-12-10T01:47:12.305Z,88.54
2017-12-10T01:49:40.623Z,88.52
2017-12-10T01:52:08.935Z,88.39
2017-12-10T01:54:37.247Z,88.49
2017-12-10T01:57:05.587Z,88.48
2017-12-10T01:59:33.915Z,88.45
2017-12-10T02:02:03.014Z,88.39
2017-12-10T02:04:32.129Z,88.39
2017-12-10T02:07:01.358Z,88.43
2017-12-10T02:09:29.698Z,88.36
2017-12-10T02:11:58.768Z,88.24
2017-12-10T02:14:27.080Z,88.22
2017-12-10T02:16:55.445Z,88.07
2017-12-10T02:19:23.767Z,88.08
2017-12-10T02:21:52.089Z,87.92
2017-12-10T02:24:20.392Z,87.90
2017-12-10T02:26:49.481Z,87.90
2017-12-10T02:29:17.806Z,87.88
2017-12-10T02:31:46.132Z,87.62
2017-12-10T02:34:14.438Z,87.36
2017-12-10T02:36:42.760Z,87.01
2017-12-10T02:39:11.073Z,86.82
2017-12-10T02:41:39.374Z,86.87
2017-12-10T02:44:08.480Z,86.81
2017-12-10T02:46:37.052Z,86.58
2017-12-10T02:49:05.381Z,86.39
2017-12-10T02:51:33.706Z,86.39
2017-12-10T02:54:02.018Z,86.48
2017-12-10T02:56:31.121Z,86.40
2017-12-10T02:59:00.236Z,86.67
2017-12-10T03:01:28.548Z,86.49
2017-12-10T03:03:56.864Z,86.54
2017-12-10T03:06:25.972Z,86.60
2017-12-10T03:08:55.036Z,86.63
2017-12-10T03:11:23.380Z,86.74
2017-12-10T03:13:51.702Z,86.83
2017-12-10T03:16:20.010Z,86.81
2017-12-10T03:18:49.138Z,86.72
2017-12-10T03:21:17.462Z,86.70
2017-12-10T03:23:45.788Z,86.63
2017-12-10T03:26:14.120Z,86.37
2017-12-10T03:28:42.464Z,86.08
2017-12-10T03:31:10.779Z,85.75
2017-12-10T03:33:39.098Z,85.68
2017-12-10T03:36:07.417Z,85.82
2017-12-10T03:38:35.762Z,85.90
2017-12-10T03:41:04.112Z,85.95
2017-12-10T03:43:32.451Z,86.01
2017-12-10T03:46:02.776Z,86.12
2017-12-10T03:48:31.120Z,86.18
2017-12-10T03:51:00.208Z,86.19
2017-12-10T03:53:29.410Z,86.21
2017-12-10T03:55:58.671Z,86.25
2017-12-10T03:58:28.544Z,86.11
2017-12-10T04:00:57.694Z,86.25
2017-12-10T04:03:26.046Z,86.37
2017-12-10T04:05:54.392Z,86.42
2017-12-10T04:08:23.458Z,86.43
2017-12-10T04:10:51.782Z,86.41
2017-12-10T04:13:20.920Z,86.48
2017-12-10T04:15:49.254Z,86.55
2017-12-10T04:18:18.348Z,86.65
2017-12-10T04:20:47.444Z,86.68
2017-12-10T04:23:16.534Z,86.70
2017-12-10T04:25:44.858Z,86.75
2017-12-10T04:28:13.187Z,86.98
2017-12-10T04:30:41.540Z,87.09
2017-12-10T04:33:09.880Z,87.20
2017-12-10T04:35:38.964Z,87.34
2017-12-10T04:38:08.064Z,87.49
2017-12-10T04:40:37.168Z,87.61
2017-12-10T04:43:06.256Z,87.64
2017-12-10T04:45:34.589Z,87.70
2017-12-10T04:48:02.885Z,87.75
2017-12-10T04:50:31.216Z,87.85
2017-12-10T04:53:00.318Z,87.84
2017-12-10T04:55:28.632Z,87.74
2017-12-10T04:57:56.970Z,87.83
2017-12-10T05:00:26.074Z,87.87
2017-12-10T05:02:55.136Z,87.88
2017-12-10T05:05:23.468Z,87.98
2017-12-10T05:07:51.794Z,88.05
2017-12-10T05:10:20.113Z,88.10
2017-12-10T05:12:49.232Z,88.08
2017-12-10T05:15:17.543Z,88.02
2017-12-10T05:17:45.859Z,87.96
2017-12-10T05:20:14.940Z,87.86
2017-12-10T05:22:43.232Z,87.73
2017-12-10T05:25:11.588Z,87.57
2017-12-10T05:27:39.884Z,87.51
2017-12-10T05:30:08.196Z,87.40
2017-12-10T05:32:37.294Z,87.34
2017-12-10T05:35:06.392Z,87.33
2017-12-10T05:37:34.720Z,87.34
2017-12-10T05:40:03.068Z,87.41
2017-12-10T05:42:31.410Z,87.49
2017-12-10T05:44:59.738Z,87.48
2017-12-10T05:47:28.062Z,87.33
2017-12-10T05:49:56.410Z,87.20
2017-12-10T05:52:24.715Z,87.22
2017-12-10T05:54:53.020Z,87.37
2017-12-10T05:57:21.342Z,87.30
2017-12-10T05:59:49.666Z,87.31
2017-12-10T06:02:17.978Z,87.31
2017-12-10T06:04:47.070Z,87.30
2017-12-10T06:07:16.164Z,87.36
2017-12-10T06:09:45.254Z,87.36
2017-12-10T06:12:15.085Z,87.33
2017-12-10T06:14:44.187Z,87.30
2017-12-10T06:17:13.286Z,87.28
2017-12-10T06:19:41.634Z,87.23
2017-12-10T06:22:09.958Z,87.27
2017-12-10T06:24:38.288Z,87.23
2017-12-10T06:27:08.395Z,87.29
2017-12-10T06:29:36.756Z,87.30
2017-12-10T06:32:05.079Z,87.19
2017-12-10T06:34:33.417Z,87.18
2017-12-10T06:37:01.722Z,87.25
2017-12-10T06:39:30.045Z,87.29
2017-12-10T06:41:59.156Z,87.38
2017-12-10T06:44:28.288Z,87.36
2017-12-10T06:46:56.635Z,87.34
2017-12-10T06:49:25.714Z,87.31
2017-12-10T06:51:54.052Z,87.22
2017-12-10T06:54:22.359Z,87.17
2017-12-10T06:56:50.710Z,87.15
2017-12-10T06:59:19.728Z,87.15
2017-12-10T07:01:48.110Z,87.17
2017-12-10T07:04:16.400Z,87.21
2017-12-10T07:06:45.617Z,87.18
2017-12-10T07:09:14.729Z,87.13
2017-12-10T07:11:43.053Z,87.21
2017-12-10T07:14:11.430Z,87.24
2017-12-10T07:16:39.832Z,87.27
2017-12-10T07:19:08.956Z,87.32
2017-12-10T07:21:37.309Z,87.38
2017-12-10T07:24:05.630Z,87.30
2017-12-10T07:26:34.734Z,87.31
2017-12-10T07:29:03.085Z,87.33
2017-12-10T07:31:31.397Z,87.25
2017-12-10T07:33:59.761Z,87.21
2017-12-10T07:36:28.859Z,87.31
2017-12-10T07:38:57.153Z,87.36
2017-12-10T07:41:26.240Z,87.32
2017-12-10T07:43:54.555Z,87.29
2017-12-10T07:46:22.867Z,87.29
2017-12-10T07:48:51.193Z,87.29
2017-12-10T07:51:20.285Z,87.26
2017-12-10T07:53:49.357Z,87.31
2017-12-10T07:56:17.693Z,87.37
2017-12-10T07:58:46.009Z,87.46
2017-12-10T08:01:14.332Z,87.36
2017-12-10T08:03:43.403Z,87.37
2017-12-10T08:06:11.739Z,87.42
2017-12-10T08:08:40.061Z,87.51
2017-12-10T08:11:08.391Z,87.55
2017-12-10T08:13:36.758Z,87.53
2017-12-10T08:16:05.091Z,87.61
2017-12-10T08:18:33.411Z,87.64
2017-12-10T08:21:02.511Z,87.65
2017-12-10T08:23:33.049Z,87.68
2017-12-10T08:26:02.127Z,87.72
2017-12-10T08:28:30.437Z,87.82
2017-12-10T08:30:58.777Z,87.90
2017-12-10T08:33:27.117Z,87.86
2017-12-10T08:35:55.443Z,87.91
2017-12-10T08:38:23.767Z,88.00
2017-12-10T08:40:52.073Z,88.08
2017-12-10T08:43:20.367Z,88.27
2017-12-10T08:45:48.709Z,88.33
2017-12-10T08:48:17.055Z,88.30
2017-12-10T08:50:45.381Z,88.39
2017-12-10T08:53:13.759Z,88.44
2017-12-10T08:55:42.061Z,88.47
2017-12-10T08:58:10.391Z,88.45
2017-12-10T09:00:39.479Z,88.47
2017-12-10T09:03:07.807Z,88.43
2017-12-10T09:05:36.125Z,88.51
2017-12-10T09:08:04.475Z,88.61
2017-12-10T09:10:32.793Z,88.60
2017-12-10T09:13:01.907Z,88.54
2017-12-10T09:15:30.977Z,88.53
2017-12-10T09:17:59.283Z,88.57
2017-12-10T09:20:28.373Z,88.51
2017-12-10T09:22:56.734Z,88.46
2017-12-10T09:25:25.069Z,88.41
2017-12-10T09:27:53.423Z,88.44
2017-12-10T09:30:22.516Z,88.43
2017-12-10T09:32:51.601Z,88.32
2017-12-10T09:35:19.980Z,88.25
2017-12-10T09:37:48.305Z,88.25
2017-12-10T09:40:16.615Z,88.13
2017-12-10T09:42:44.925Z,88.19
2017-12-10T09:45:13.231Z,88.14
2017-12-10T09:47:42.355Z,88.05
2017-12-10T09:50:10.687Z,88.00
2017-12-10T09:52:38.995Z,87.96
2017-12-10T09:55:07.291Z,88.04
2017-12-10T09:57:35.623Z,87.99
2017-12-10T10:00:03.963Z,88.02
2017-12-10T10:02:32.283Z,88.03
2017-12-10T10:05:00.603Z,87.98
2017-12-10T10:07:28.931Z,88.02
2017-12-10T10:09:57.293Z,88.04
2017-12-10T10:12:25.601Z,88.04
2017-12-10T10:14:53.939Z,88.15
2017-12-10T10:17:22.263Z,88.19
2017-12-10T10:19:50.580Z,88.29
2017-12-10T10:22:19.648Z,88.23
2017-12-10T10:24:47.989Z,88.34
2017-12-10T10:27:16.304Z,88.48
2017-12-10T10:29:44.625Z,88.64
2017-12-10T10:32:13.743Z,88.64
2017-12-10T10:34:42.052Z,88.74
2017-12-10T10:37:10.371Z,88.80
2017-12-10T10:39:40.407Z,88.87
2017-12-10T10:42:08.737Z,88.93
2017-12-10T10:44:37.055Z,89.01
2017-12-10T10:47:06.175Z,89.24
2017-12-10T10:49:35.722Z,89.27
2017-12-10T10:52:04.056Z,89.23
2017-12-10T10:54:32.399Z,89.34
2017-12-10T10:57:00.779Z,89.39
2017-12-10T10:59:29.103Z,89.51
2017-12-10T11:01:57.449Z,89.64
2017-12-10T11:04:25.824Z,89.63
2017-12-10T11:06:54.159Z,89.64
2017-12-10T11:09:22.491Z,89.66
2017-12-10T11:11:50.813Z,89.76
2017-12-10T11:14:19.146Z,89.77
2017-12-10T11:16:47.444Z,90.07
2017-12-10T11:19:17.381Z,90.16
2017-12-10T11:21:45.693Z,89.90
2017-12-10T11:24:13.996Z,89.78
2017-12-10T11:26:42.308Z,89.91
2017-12-10T11:29:11.387Z,90.20
2017-12-10T11:31:39.722Z,90.11
2017-12-10T11:34:08.011Z,90.22
2017-12-10T11:36:36.322Z,90.08
2017-12-10T11:39:04.651Z,89.96
2017-12-10T11:41:33.024Z,90.26
2017-12-10T11:44:01.369Z,90.33
2017-12-10T11:46:29.733Z,90.44
2017-12-10T11:48:58.069Z,90.45
2017-12-10T11:51:26.393Z,90.61
2017-12-10T11:53:54.704Z,90.81
2017-12-10T11:56:23.794Z,90.96
2017-12-10T11:58:54.245Z,90.93
2017-12-10T12:01:23.337Z,90.88
2017-12-10T12:03:53.490Z,90.84
2017-12-10T12:06:21.813Z,90.98
2017-12-10T12:08:50.163Z,91.16
2017-12-10T12:11:19.318Z,91.26
2017-12-10T12:13:48.446Z,91.29
2017-12-10T12:16:16.815Z,91.33
2017-12-10T12:18:45.132Z,91.43
2017-12-10T12:21:13.439Z,91.39
2017-12-10T12:23:41.755Z,91.56
2017-12-10T12:26:10.164Z,91.74
2017-12-10T12:28:38.463Z,91.78
2017-12-10T12:31:06.779Z,91.89
2017-12-10T12:33:35.104Z,92.00
2017-12-10T12:36:03.409Z,92.02
2017-12-10T12:38:31.734Z,92.05
2017-12-10T12:41:00.827Z,91.98
2017-12-10T12:43:29.904Z,91.88
2017-12-10T12:45:58.233Z,91.73
2017-12-10T12:48:26.691Z,91.74
2017-12-10T12:50:55.007Z,91.70
2017-12-10T12:53:23.329Z,91.69
2017-12-10T12:55:51.657Z,91.72
2017-12-10T12:58:19.981Z,91.73
2017-12-10T13:00:48.475Z,91.77
2017-12-10T13:03:16.833Z,91.73
2017-12-10T13:05:45.164Z,91.66
2017-12-10T13:08:13.486Z,91.46
2017-12-10T13:10:41.784Z,91.34
2017-12-10T13:13:10.100Z,91.46
2017-12-10T13:15:39.189Z,91.57
2017-12-10T13:18:08.263Z,91.40
2017-12-10T13:20:36.609Z,90.95
2017-12-10T13:23:04.949Z,90.95
2017-12-10T13:25:34.033Z,91.10
2017-12-10T13:28:02.334Z,91.24
2017-12-10T13:30:31.452Z,91.34
2017-12-10T13:32:59.799Z,91.49
2017-12-10T13:35:28.890Z,91.53
2017-12-10T13:37:57.360Z,91.55
2017-12-10T13:40:25.851Z,91.65
2017-12-10T13:42:54.141Z,91.76
2017-12-10T13:45:22.512Z,91.84
2017-12-10T13:47:50.830Z,91.84
2017-12-10T13:50:19.152Z,91.79
2017-12-10T13:52:47.472Z,91.72
2017-12-10T13:55:15.805Z,91.75
2017-12-10T13:57:44.130Z,91.78
2017-12-10T14:00:13.218Z,91.70
2017-12-10T14:02:42.304Z,91.75
2017-12-10T14:05:10.624Z,91.85
2017-12-10T14:07:39.717Z,91.96
2017-12-10T14:10:08.794Z,91.97
2017-12-10T14:12:37.094Z,92.02
2017-12-10T14:15:06.190Z,92.05
2017-12-10T14:17:35.262Z,92.12
2017-12-10T14:20:03.586Z,92.22
2017-12-10T14:22:31.952Z,92.34
2017-12-10T14:25:01.110Z,92.41
2017-12-10T14:27:29.445Z,92.43
2017-12-10T14:29:57.768Z,92.50
2017-12-10T14:32:26.120Z,92.50
2017-12-10T14:34:54.428Z,92.45
2017-12-10T14:37:22.755Z,92.52
2017-12-10T14:39:51.844Z,92.64
2017-12-10T14:42:20.952Z,92.79
2017-12-10T14:44:49.314Z,92.86
2017-12-10T14:47:17.645Z,92.83
2017-12-10T14:49:46.335Z,92.87
2017-12-10T14:52:14.671Z,92.97
2017-12-10T14:54:43.778Z,93.00
2017-12-10T14:57:13.606Z,92.98
2017-12-10T14:59:41.931Z,93.09
2017-12-10T15:02:10.287Z,93.17
2017-12-10T15:04:38.650Z,93.25
2017-12-10T15:07:06.968Z,93.30
2017-12-10T15:09:35.295Z,93.21
2017-12-10T15:12:03.697Z,93.15
2017-12-10T15:14:32.031Z,93.24
2017-12-10T15:17:00.343Z,93.32
2017-12-10T15:19:29.447Z,93.43
2017-12-10T15:21:57.755Z,93.40
2017-12-10T15:24:26.104Z,93.35
2017-12-10T15:26:55.176Z,93.54
2017-12-10T15:29:23.494Z,93.65
2017-12-10T15:31:51.811Z,93.55
2017-12-10T15:34:20.153Z,93.54
2017-12-10T15:36:48.475Z,93.54
2017-12-10T15:39:17.582Z,93.59
2017-12-10T15:41:45.923Z,93.68
2017-12-10T15:44:14.230Z,93.73
2017-12-10T15:46:42.541Z,93.63
2017-12-10T15:49:10.882Z,93.62
2017-12-10T15:51:39.189Z,93.54
2017-12-10T15:54:07.505Z,93.55
2017-12-10T15:56:36.600Z,93.59
2017-12-10T15:59:05.052Z,93.44
2017-12-10T16:01:33.394Z,93.27
2017-12-10T16:04:01.749Z,93.33
2017-12-10T16:06:30.118Z,93.39
2017-12-10T16:08:59.218Z,93.42
2017-12-10T16:11:28.394Z,93.49
2017-12-10T16:13:56.712Z,93.47
2017-12-10T16:16:25.030Z,93.36
2017-12-10T16:18:53.368Z,93.41
2017-12-10T16:21:21.696Z,93.59
2017-12-10T16:23:50.034Z,93.69
2017-12-10T16:26:18.367Z,93.63
2017-12-10T16:28:46.701Z,93.62
2017-12-10T16:31:15.025Z,93.67
2017-12-10T16:33:43.366Z,93.76
2017-12-10T16:36:11.708Z,93.85
2017-12-10T16:38:40.031Z,93.97
2017-12-10T16:41:08.345Z,94.02
2017-12-10T16:43:36.686Z,94.00
2017-12-10T16:46:05.000Z,93.99
2017-12-10T16:48:33.310Z,94.11
2017-12-10T16:51:01.630Z,94.09
2017-12-10T16:53:30.178Z,94.06
2017-12-10T16:55:58.504Z,94.08
2017-12-10T16:58:26.908Z,94.16
2017-12-10T17:00:55.228Z,94.23
2017-12-10T17:03:23.713Z,94.24
2017-12-10T17:05:52.810Z,94.26
2017-12-10T17:08:21.496Z,94.19
2017-12-10T17:10:50.591Z,94.15
2017-12-10T17:13:19.702Z,94.22
2017-12-10T17:15:48.814Z,94.33
2017-12-10T17:18:17.158Z,94.28
2017-12-10T17:20:45.479Z,94.28
2017-12-10T17:23:13.815Z,94.34
2017-12-10T17:25:42.140Z,94.34
2017-12-10T17:28:10.476Z,94.23
2017-12-10T17:30:38.796Z,94.25
2017-12-10T17:33:07.108Z,94.14
2017-12-10T17:35:35.460Z,94.17
2017-12-10T17:38:03.836Z,94.22
2017-12-10T17:40:32.190Z,94.19
2017-12-10T17:43:00.548Z,94.21
2017-12-10T17:45:28.912Z,94.23
2017-12-10T17:47:57.270Z,94.24
2017-12-10T17:50:25.612Z,94.21
2017-12-10T17:52:53.939Z,94.10
2017-12-10T17:55:22.332Z,94.21
2017-12-10T17:57:50.660Z,94.23
2017-12-10T18:00:19.772Z,94.25
2017-12-10T18:02:48.095Z,94.18
2017-12-10T18:05:16.429Z,93.96
2017-12-10T18:07:45.521Z,94.01
2017-12-10T18:10:14.638Z,93.96
2017-12-10T18:12:44.373Z,94.00
2017-12-10T18:15:12.864Z,93.76
2017-12-10T18:17:41.194Z,93.96
2017-12-10T18:20:09.549Z,93.82
2017-12-10T18:22:37.878Z,93.82
2017-12-10T18:25:06.941Z,93.82
2017-12-10T18:27:35.288Z,93.95
2017-12-10T18:30:03.596Z,93.93
2017-12-10T18:32:31.934Z,94.03
2017-12-10T18:35:01.289Z,94.10
2017-12-10T18:37:29.712Z,94.18
2017-12-10T18:39:58.211Z,94.10
2017-12-10T18:42:27.599Z,94.11
2017-12-10T18:44:56.014Z,94.04
2017-12-10T18:47:24.361Z,93.97
2017-12-10T18:49:54.340Z,94.13
2017-12-10T18:52:22.714Z,94.22
2017-12-10T18:54:51.160Z,94.35
2017-12-10T18:57:19.526Z,94.37
2017-12-10T18:59:47.905Z,94.29
2017-12-10T19:02:16.995Z,94.36
2017-12-10T19:04:45.318Z,94.28
2017-12-10T19:07:13.686Z,94.10
2017-12-10T19:09:42.033Z,94.06
2017-12-10T19:12:11.132Z,94.18
2017-12-10T19:14:40.231Z,94.09
2017-12-10T19:17:09.303Z,94.03
2017-12-10T19:19:37.631Z,94.13
2017-12-10T19:22:06.041Z,94.07
2017-12-10T19:24:34.361Z,94.06
2017-12-10T19:27:02.664Z,94.07
2017-12-10T19:29:30.983Z,93.93
2017-12-10T19:31:59.347Z,93.84
2017-12-10T19:34:27.712Z,93.80
2017-12-10T19:36:56.073Z,94.02
2017-12-10T19:39:25.173Z,93.89
2017-12-10T19:41:54.286Z,93.78
2017-12-10T19:44:23.393Z,93.76
2017-12-10T19:46:52.234Z,93.72
2017-12-10T19:49:20.625Z,93.76
2017-12-10T19:51:49.760Z,93.74
2017-12-10T19:54:18.882Z,93.80
2017-12-10T19:56:47.231Z,93.77
2017-12-10T19:59:16.338Z,93.81
2017-12-10T20:01:46.382Z,93.75
2017-12-10T20:04:15.991Z,93.76
2017-12-10T20:06:44.328Z,93.79
2017-12-10T20:09:14.242Z,93.84
2017-12-10T20:11:42.557Z,93.62
2017-12-10T20:14:10.979Z,93.66
2017-12-10T20:16:42.018Z,93.57
2017-12-10T20:19:10.727Z,93.54
2017-12-10T20:21:39.074Z,93.62
2017-12-10T20:24:07.408Z,93.69
2017-12-10T20:26:36.543Z,93.50
2017-12-10T20:29:04.873Z,93.40
2017-12-10T20:31:34.003Z,93.30
2017-12-10T20:34:02.428Z,93.28
2017-12-10T20:36:31.452Z,93.15
2017-12-10T20:41:34.390Z,93.00
2017-12-10T20:44:02.727Z,92.91
2017-12-10T20:46:31.040Z,92.62
2017-12-10T20:48:59.371Z,92.72
2017-12-10T20:51:27.735Z,92.70
2017-12-10T20:53:56.725Z,92.69
2017-12-10T20:56:25.925Z,92.73
2017-12-10T20:58:55.369Z,92.45
2017-12-10T21:01:24.876Z,92.28
2017-12-10T21:03:55.039Z,92.08
2017-12-10T21:06:23.584Z,92.12
2017-12-10T21:08:52.451Z,92.19
2017-12-10T21:11:20.817Z,92.14
2017-12-10T21:13:49.135Z,92.06
2017-12-10T21:16:18.306Z,92.14
2017-12-10T21:18:46.617Z,92.06
2017-12-10T21:21:15.272Z,91.96
2017-12-10T21:23:44.509Z,91.80
2017-12-10T21:26:12.827Z,91.78
2017-12-10T21:28:41.920Z,91.55
2017-12-10T21:31:11.035Z,91.59
2017-12-10T21:33:39.340Z,91.35
2017-12-10T21:36:07.689Z,91.61
2017-12-10T21:38:36.023Z,91.41
2017-12-10T21:41:04.361Z,91.42
2017-12-10T21:43:32.729Z,91.34
2017-12-10T21:46:02.185Z,91.33
2017-12-10T21:48:30.520Z,91.25
2017-12-10T21:50:59.643Z,91.20
2017-12-10T21:53:27.961Z,91.13
2017-12-10T21:55:56.297Z,91.08
2017-12-10T21:58:24.611Z,91.01
2017-12-10T22:00:53.006Z,91.01
2017-12-10T22:03:21.377Z,91.04
2017-12-10T22:05:49.702Z,91.06
2017-12-10T22:08:18.855Z,91.03
2017-12-10T22:10:47.211Z,91.06
2017-12-10T22:13:15.976Z,91.09
2017-12-10T22:15:45.073Z,91.09
2017-12-10T22:18:14.867Z,91.11
2017-12-10T22:20:43.188Z,91.05
2017-12-10T22:23:11.587Z,90.95
2017-12-10T22:25:39.961Z,90.93
2017-12-10T22:28:08.302Z,90.88
2017-12-10T22:30:37.440Z,91.02
2017-12-10T22:33:06.615Z,91.00
2017-12-10T22:35:35.022Z,91.09
2017-12-10T22:38:03.437Z,91.04
2017-12-10T22:40:33.291Z,91.01
2017-12-10T22:43:02.405Z,90.97
2017-12-10T22:45:30.712Z,90.92
2017-12-10T22:47:59.061Z,90.86
2017-12-10T22:50:27.364Z,90.81
2017-12-10T22:52:55.684Z,90.76
2017-12-10T22:55:24.888Z,90.59
2017-12-10T22:57:53.999Z,90.50
2017-12-10T23:00:22.326Z,90.53
2017-12-10T23:02:50.656Z,90.54
2017-12-10T23:05:26.739Z,90.51
2017-12-10T23:07:55.080Z,90.38
2017-12-10T23:10:23.416Z,90.32
2017-12-10T23:12:51.746Z,90.22
2017-12-10T23:15:20.092Z,90.14
2017-12-10T23:17:48.430Z,90.05
2017-12-10T23:20:32.378Z,90.04
2017-12-10T23:23:00.704Z,89.76
2017-12-10T23:25:29.058Z,89.68
2017-12-10T23:27:57.376Z,89.73
2017-12-10T23:30:25.742Z,89.76
2017-12-10T23:32:54.078Z,89.53
2017-12-10T23:35:22.414Z,89.31
2017-12-10T23:37:50.756Z,89.30
2017-12-10T23:40:19.096Z,89.40
2017-12-10T23:42:47.540Z,89.25
2017-12-10T23:45:15.917Z,89.23
2017-12-10T23:47:44.242Z,89.27
2017-12-10T23:50:12.563Z,89.19
2017-12-10T23:52:40.892Z,89.05
2017-12-10T23:55:09.262Z,88.89
2017-12-10T23:57:37.612Z,89.00
